sensor_id;sensor_type;location;lat;lon;timestamp;P1;durP1;ratioP1;P2;durP2;ratioP2
68614;SDS011;55593;51.994;5.882;2023-10-08T00:01:50;24.08;;;7.10;;
68614;SDS011;55593;51.994;5.882;2023-10-08T00:04:24;22.10;;;5.65;;
68614;SDS011;55593;51.994;5.882;2023-10-08T00:06:53;30.40;;;7.47;;
68614;SDS011;55593;51.994;5.882;2023-10-08T00:09:22;23.77;;;6.25;;
68614;SDS011;55593;51.994;5.882;2023-10-08T00:11:51;29.45;;;6.40;;
68614;SDS011;55593;51.994;5.882;2023-10-08T00:14:21;31.75;;;7.10;;
68614;SDS011;55593;51.994;5.882;2023-10-08T00:16:50;24.88;;;6.38;;
68614;SDS011;55593;51.994;5.882;2023-10-08T00:19:19;28.42;;;6.32;;
68614;SDS011;55593;51.994;5.882;2023-10-08T00:21:52;25.63;;;6.15;;
68614;SDS011;55593;51.994;5.882;2023-10-08T00:24:30;33.63;;;6.95;;
68614;SDS011;55593;51.994;5.882;2023-10-08T00:27:00;26.15;;;6.25;;
68614;SDS011;55593;51.994;5.882;2023-10-08T00:29:32;17.55;;;5.80;;
68614;SDS011;55593;51.994;5.882;2023-10-08T00:32:05;21.98;;;6.47;;
68614;SDS011;55593;51.994;5.882;2023-10-08T00:34:41;25.67;;;6.03;;
68614;SDS011;55593;51.994;5.882;2023-10-08T00:37:14;27.38;;;6.45;;
68614;SDS011;55593;51.994;5.882;2023-10-08T00:39:44;22.30;;;6.10;;
68614;SDS011;55593;51.994;5.882;2023-10-08T00:42:13;31.58;;;8.02;;
68614;SDS011;55593;51.994;5.882;2023-10-08T00:44:43;28.05;;;7.13;;
68614;SDS011;55593;51.994;5.882;2023-10-08T00:47:17;23.80;;;6.30;;
68614;SDS011;55593;51.994;5.882;2023-10-08T00:49:51;32.28;;;6.72;;
68614;SDS011;55593;51.994;5.882;2023-10-08T00:52:33;23.48;;;6.65;;
68614;SDS011;55593;51.994;5.882;2023-10-08T00:55:11;27.63;;;7.93;;
68614;SDS011;55593;51.994;5.882;2023-10-08T00:57:55;24.05;;;5.95;;
68614;SDS011;55593;51.994;5.882;2023-10-08T01:00:34;28.15;;;6.88;;
68614;SDS011;55593;51.994;5.882;2023-10-08T01:03:07;27.98;;;6.35;;
68614;SDS011;55593;51.994;5.882;2023-10-08T01:05:40;25.42;;;6.85;;
68614;SDS011;55593;51.994;5.882;2023-10-08T01:08:17;27.90;;;6.88;;
68614;SDS011;55593;51.994;5.882;2023-10-08T01:10:49;32.45;;;8.07;;
68614;SDS011;55593;51.994;5.882;2023-10-08T01:13:26;28.63;;;7.60;;
68614;SDS011;55593;51.994;5.882;2023-10-08T01:16:02;27.73;;;7.47;;
68614;SDS011;55593;51.994;5.882;2023-10-08T01:18:34;30.67;;;7.80;;
68614;SDS011;55593;51.994;5.882;2023-10-08T01:21:08;26.30;;;6.78;;
68614;SDS011;55593;51.994;5.882;2023-10-08T01:23:57;27.73;;;7.97;;
68614;SDS011;55593;51.994;5.882;2023-10-08T01:26:28;25.55;;;6.93;;
68614;SDS011;55593;51.994;5.882;2023-10-08T01:28:58;28.17;;;6.95;;
68614;SDS011;55593;51.994;5.882;2023-10-08T01:31:29;19.85;;;6.97;;
68614;SDS011;55593;51.994;5.882;2023-10-08T01:33:58;23.88;;;6.45;;
68614;SDS011;55593;51.994;5.882;2023-10-08T01:36:30;29.30;;;7.38;;
68614;SDS011;55593;51.994;5.882;2023-10-08T01:39:04;31.67;;;7.82;;
68614;SDS011;55593;51.994;5.882;2023-10-08T01:41:37;29.13;;;8.32;;
68614;SDS011;55593;51.994;5.882;2023-10-08T01:44:06;28.30;;;7.82;;
68614;SDS011;55593;51.994;5.882;2023-10-08T01:46:35;29.17;;;7.95;;
68614;SDS011;55593;51.994;5.882;2023-10-08T01:49:06;27.13;;;7.47;;
68614;SDS011;55593;51.994;5.882;2023-10-08T01:51:40;26.75;;;7.90;;
68614;SDS011;55593;51.994;5.882;2023-10-08T01:54:15;29.55;;;6.88;;
68614;SDS011;55593;51.994;5.882;2023-10-08T01:56:47;22.20;;;6.35;;
68614;SDS011;55593;51.994;5.882;2023-10-08T01:59:16;22.58;;;6.35;;
68614;SDS011;55593;51.994;5.882;2023-10-08T02:01:45;28.17;;;6.65;;
68614;SDS011;55593;51.994;5.882;2023-10-08T02:04:14;17.02;;;6.00;;
68614;SDS011;55593;51.994;5.882;2023-10-08T02:06:43;22.63;;;7.05;;
68614;SDS011;55593;51.994;5.882;2023-10-08T02:09:15;22.55;;;6.00;;
68614;SDS011;55593;51.994;5.882;2023-10-08T02:11:51;24.35;;;6.53;;
68614;SDS011;55593;51.994;5.882;2023-10-08T02:14:22;21.40;;;7.30;;
68614;SDS011;55593;51.994;5.882;2023-10-08T02:16:53;28.73;;;7.10;;
68614;SDS011;55593;51.994;5.882;2023-10-08T02:19:29;22.50;;;7.22;;
68614;SDS011;55593;51.994;5.882;2023-10-08T02:21:58;32.25;;;8.20;;
68614;SDS011;55593;51.994;5.882;2023-10-08T02:24:31;31.30;;;7.97;;
68614;SDS011;55593;51.994;5.882;2023-10-08T02:27:00;30.15;;;7.28;;
68614;SDS011;55593;51.994;5.882;2023-10-08T02:29:30;33.35;;;8.15;;
68614;SDS011;55593;51.994;5.882;2023-10-08T02:31:59;22.63;;;7.15;;
68614;SDS011;55593;51.994;5.882;2023-10-08T02:34:31;23.52;;;7.28;;
68614;SDS011;55593;51.994;5.882;2023-10-08T02:37:01;35.58;;;8.13;;
68614;SDS011;55593;51.994;5.882;2023-10-08T02:39:33;28.92;;;7.53;;
68614;SDS011;55593;51.994;5.882;2023-10-08T02:42:06;30.73;;;7.97;;
68614;SDS011;55593;51.994;5.882;2023-10-08T02:44:36;23.42;;;7.65;;
68614;SDS011;55593;51.994;5.882;2023-10-08T02:47:07;30.42;;;7.03;;
68614;SDS011;55593;51.994;5.882;2023-10-08T02:49:37;24.20;;;6.50;;
68614;SDS011;55593;51.994;5.882;2023-10-08T02:52:08;27.58;;;7.75;;
68614;SDS011;55593;51.994;5.882;2023-10-08T02:54:41;32.10;;;8.98;;
68614;SDS011;55593;51.994;5.882;2023-10-08T02:57:10;28.13;;;7.95;;
68614;SDS011;55593;51.994;5.882;2023-10-08T02:59:42;26.27;;;7.28;;
68614;SDS011;55593;51.994;5.882;2023-10-08T03:02:13;29.70;;;7.25;;
68614;SDS011;55593;51.994;5.882;2023-10-08T03:04:44;25.35;;;8.15;;
68614;SDS011;55593;51.994;5.882;2023-10-08T03:07:16;30.33;;;6.78;;
68614;SDS011;55593;51.994;5.882;2023-10-08T03:10:02;27.75;;;8.38;;
68614;SDS011;55593;51.994;5.882;2023-10-08T03:12:44;26.80;;;7.70;;
68614;SDS011;55593;51.994;5.882;2023-10-08T03:15:16;24.15;;;7.53;;
68614;SDS011;55593;51.994;5.882;2023-10-08T03:17:55;24.85;;;7.13;;
68614;SDS011;55593;51.994;5.882;2023-10-08T03:20:34;28.13;;;8.27;;
68614;SDS011;55593;51.994;5.882;2023-10-08T03:23:08;21.92;;;6.72;;
68614;SDS011;55593;51.994;5.882;2023-10-08T03:25:54;25.75;;;7.57;;
68614;SDS011;55593;51.994;5.882;2023-10-08T03:28:26;29.48;;;7.88;;
68614;SDS011;55593;51.994;5.882;2023-10-08T03:31:00;26.85;;;6.90;;
68614;SDS011;55593;51.994;5.882;2023-10-08T03:33:33;35.22;;;10.13;;
68614;SDS011;55593;51.994;5.882;2023-10-08T03:36:03;24.75;;;7.53;;
68614;SDS011;55593;51.994;5.882;2023-10-08T03:38:40;34.70;;;8.40;;
68614;SDS011;55593;51.994;5.882;2023-10-08T03:41:21;23.95;;;7.65;;
68614;SDS011;55593;51.994;5.882;2023-10-08T03:43:53;31.52;;;8.60;;
68614;SDS011;55593;51.994;5.882;2023-10-08T03:46:28;22.50;;;8.20;;
68614;SDS011;55593;51.994;5.882;2023-10-08T03:48:57;30.45;;;8.00;;
68614;SDS011;55593;51.994;5.882;2023-10-08T03:51:30;40.75;;;13.20;;
68614;SDS011;55593;51.994;5.882;2023-10-08T03:54:05;27.77;;;11.52;;
68614;SDS011;55593;51.994;5.882;2023-10-08T03:56:52;44.00;;;12.32;;
68614;SDS011;55593;51.994;5.882;2023-10-08T03:59:21;31.98;;;11.48;;
68614;SDS011;55593;51.994;5.882;2023-10-08T04:02:00;26.98;;;10.85;;
68614;SDS011;55593;51.994;5.882;2023-10-08T04:04:39;37.47;;;11.35;;
68614;SDS011;55593;51.994;5.882;2023-10-08T04:07:19;24.50;;;9.93;;
68614;SDS011;55593;51.994;5.882;2023-10-08T04:10:10;27.75;;;11.73;;
68614;SDS011;55593;51.994;5.882;2023-10-08T04:12:54;26.48;;;9.82;;
68614;SDS011;55593;51.994;5.882;2023-10-08T04:15:23;40.30;;;13.52;;
68614;SDS011;55593;51.994;5.882;2023-10-08T04:17:53;29.52;;;9.68;;
68614;SDS011;55593;51.994;5.882;2023-10-08T04:20:23;39.28;;;11.90;;
68614;SDS011;55593;51.994;5.882;2023-10-08T04:23:04;28.73;;;10.40;;
68614;SDS011;55593;51.994;5.882;2023-10-08T04:25:39;34.75;;;10.63;;
68614;SDS011;55593;51.994;5.882;2023-10-08T04:28:13;30.83;;;9.23;;
68614;SDS011;55593;51.994;5.882;2023-10-08T04:30:46;34.58;;;9.15;;
68614;SDS011;55593;51.994;5.882;2023-10-08T04:33:16;30.95;;;7.00;;
68614;SDS011;55593;51.994;5.882;2023-10-08T04:35:45;24.95;;;6.78;;
68614;SDS011;55593;51.994;5.882;2023-10-08T04:38:19;25.80;;;7.85;;
68614;SDS011;55593;51.994;5.882;2023-10-08T04:40:51;19.85;;;6.35;;
68614;SDS011;55593;51.994;5.882;2023-10-08T04:43:29;22.17;;;6.50;;
68614;SDS011;55593;51.994;5.882;2023-10-08T04:46:04;23.40;;;6.53;;
68614;SDS011;55593;51.994;5.882;2023-10-08T04:48:45;24.02;;;6.63;;
68614;SDS011;55593;51.994;5.882;2023-10-08T04:51:15;25.85;;;7.20;;
68614;SDS011;55593;51.994;5.882;2023-10-08T04:53:47;25.08;;;6.22;;
68614;SDS011;55593;51.994;5.882;2023-10-08T04:56:17;19.75;;;5.60;;
68614;SDS011;55593;51.994;5.882;2023-10-08T04:58:49;20.67;;;7.28;;
68614;SDS011;55593;51.994;5.882;2023-10-08T05:01:18;14.77;;;5.30;;
68614;SDS011;55593;51.994;5.882;2023-10-08T05:06:49;23.40;;;6.15;;
68614;SDS011;55593;51.994;5.882;2023-10-08T05:09:44;15.63;;;4.40;;
68614;SDS011;55593;51.994;5.882;2023-10-08T05:12:29;19.27;;;5.18;;
68614;SDS011;55593;51.994;5.882;2023-10-08T05:15:06;15.98;;;4.45;;
68614;SDS011;55593;51.994;5.882;2023-10-08T05:17:59;21.23;;;5.07;;
68614;SDS011;55593;51.994;5.882;2023-10-08T05:20:40;14.23;;;4.90;;
68614;SDS011;55593;51.994;5.882;2023-10-08T05:23:11;13.90;;;5.10;;
68614;SDS011;55593;51.994;5.882;2023-10-08T05:26:09;19.25;;;6.25;;
68614;SDS011;55593;51.994;5.882;2023-10-08T05:28:46;17.90;;;5.72;;
68614;SDS011;55593;51.994;5.882;2023-10-08T05:31:30;11.75;;;4.80;;
68614;SDS011;55593;51.994;5.882;2023-10-08T05:34:12;14.50;;;5.17;;
68614;SDS011;55593;51.994;5.882;2023-10-08T05:36:58;18.17;;;4.70;;
68614;SDS011;55593;51.994;5.882;2023-10-08T05:39:58;19.30;;;5.97;;
68614;SDS011;55593;51.994;5.882;2023-10-08T05:42:38;11.27;;;4.25;;
68614;SDS011;55593;51.994;5.882;2023-10-08T05:45:12;22.08;;;6.85;;
68614;SDS011;55593;51.994;5.882;2023-10-08T05:47:58;13.57;;;4.85;;
68614;SDS011;55593;51.994;5.882;2023-10-08T05:50:39;12.02;;;4.60;;
68614;SDS011;55593;51.994;5.882;2023-10-08T05:53:21;17.30;;;4.60;;
68614;SDS011;55593;51.994;5.882;2023-10-08T05:56:09;16.85;;;6.78;;
68614;SDS011;55593;51.994;5.882;2023-10-08T05:58:54;15.45;;;4.53;;
68614;SDS011;55593;51.994;5.882;2023-10-08T06:01:40;14.95;;;4.60;;
68614;SDS011;55593;51.994;5.882;2023-10-08T06:04:14;15.65;;;4.30;;
68614;SDS011;55593;51.994;5.882;2023-10-08T06:07:08;10.50;;;4.13;;
68614;SDS011;55593;51.994;5.882;2023-10-08T06:09:42;11.55;;;3.80;;
68614;SDS011;55593;51.994;5.882;2023-10-08T06:12:27;10.80;;;3.60;;
68614;SDS011;55593;51.994;5.882;2023-10-08T06:14:56;13.52;;;3.60;;
68614;SDS011;55593;51.994;5.882;2023-10-08T06:17:38;10.95;;;4.10;;
68614;SDS011;55593;51.994;5.882;2023-10-08T06:20:22;12.07;;;4.85;;
68614;SDS011;55593;51.994;5.882;2023-10-08T06:22:53;9.63;;;4.47;;
68614;SDS011;55593;51.994;5.882;2023-10-08T06:25:26;19.33;;;5.57;;
68614;SDS011;55593;51.994;5.882;2023-10-08T06:27:56;18.38;;;4.82;;
68614;SDS011;55593;51.994;5.882;2023-10-08T06:30:28;15.45;;;5.70;;
68614;SDS011;55593;51.994;5.882;2023-10-08T06:33:00;14.25;;;4.10;;
68614;SDS011;55593;51.994;5.882;2023-10-08T06:35:32;17.80;;;4.07;;
68614;SDS011;55593;51.994;5.882;2023-10-08T06:38:02;12.57;;;4.18;;
68614;SDS011;55593;51.994;5.882;2023-10-08T06:40:35;9.55;;;3.60;;
68614;SDS011;55593;51.994;5.882;2023-10-08T06:43:11;13.13;;;3.58;;
68614;SDS011;55593;51.994;5.882;2023-10-08T06:45:40;8.18;;;3.50;;
68614;SDS011;55593;51.994;5.882;2023-10-08T06:48:10;11.63;;;3.85;;
68614;SDS011;55593;51.994;5.882;2023-10-08T06:50:49;12.80;;;3.83;;
68614;SDS011;55593;51.994;5.882;2023-10-08T06:53:22;11.80;;;4.25;;
68614;SDS011;55593;51.994;5.882;2023-10-08T06:55:55;10.90;;;4.40;;
68614;SDS011;55593;51.994;5.882;2023-10-08T06:58:29;8.82;;;4.50;;
68614;SDS011;55593;51.994;5.882;2023-10-08T07:01:00;7.57;;;4.22;;
68614;SDS011;55593;51.994;5.882;2023-10-08T07:03:30;9.55;;;5.28;;
68614;SDS011;55593;51.994;5.882;2023-10-08T07:06:03;8.38;;;4.40;;
68614;SDS011;55593;51.994;5.882;2023-10-08T07:08:42;7.03;;;5.05;;
68614;SDS011;55593;51.994;5.882;2023-10-08T07:11:12;12.38;;;4.60;;
68614;SDS011;55593;51.994;5.882;2023-10-08T07:13:43;9.90;;;5.05;;
68614;SDS011;55593;51.994;5.882;2023-10-08T07:16:13;9.02;;;5.20;;
68614;SDS011;55593;51.994;5.882;2023-10-08T07:18:43;10.00;;;5.22;;
68614;SDS011;55593;51.994;5.882;2023-10-08T07:21:20;9.18;;;5.72;;
68614;SDS011;55593;51.994;5.882;2023-10-08T07:23:54;9.00;;;5.93;;
68614;SDS011;55593;51.994;5.882;2023-10-08T07:26:25;7.75;;;5.38;;
68614;SDS011;55593;51.994;5.882;2023-10-08T07:29:01;8.93;;;6.03;;
68614;SDS011;55593;51.994;5.882;2023-10-08T07:31:34;8.38;;;5.57;;
68614;SDS011;55593;51.994;5.882;2023-10-08T07:34:07;8.45;;;5.57;;
68614;SDS011;55593;51.994;5.882;2023-10-08T07:36:47;6.68;;;5.65;;
68614;SDS011;55593;51.994;5.882;2023-10-08T07:39:18;8.32;;;5.57;;
68614;SDS011;55593;51.994;5.882;2023-10-08T07:41:59;7.47;;;5.93;;
68614;SDS011;55593;51.994;5.882;2023-10-08T07:44:31;8.05;;;5.28;;
68614;SDS011;55593;51.994;5.882;2023-10-08T07:47:01;6.80;;;5.05;;
68614;SDS011;55593;51.994;5.882;2023-10-08T07:49:31;7.80;;;5.15;;
68614;SDS011;55593;51.994;5.882;2023-10-08T07:52:04;7.35;;;5.07;;
68614;SDS011;55593;51.994;5.882;2023-10-08T07:54:34;6.25;;;5.43;;
68614;SDS011;55593;51.994;5.882;2023-10-08T07:57:03;9.00;;;5.90;;
68614;SDS011;55593;51.994;5.882;2023-10-08T07:59:38;8.00;;;5.30;;
68614;SDS011;55593;51.994;5.882;2023-10-08T08:02:10;7.93;;;5.25;;
68614;SDS011;55593;51.994;5.882;2023-10-08T08:04:39;7.28;;;5.22;;
68614;SDS011;55593;51.994;5.882;2023-10-08T08:07:13;6.82;;;5.35;;
68614;SDS011;55593;51.994;5.882;2023-10-08T08:09:43;10.27;;;6.75;;
68614;SDS011;55593;51.994;5.882;2023-10-08T08:12:16;8.85;;;6.93;;
68614;SDS011;55593;51.994;5.882;2023-10-08T08:14:47;7.07;;;6.28;;
68614;SDS011;55593;51.994;5.882;2023-10-08T08:17:17;7.78;;;6.30;;
68614;SDS011;55593;51.994;5.882;2023-10-08T08:19:49;10.50;;;7.25;;
68614;SDS011;55593;51.994;5.882;2023-10-08T08:22:21;9.15;;;7.38;;
68614;SDS011;55593;51.994;5.882;2023-10-08T08:24:56;9.25;;;7.25;;
68614;SDS011;55593;51.994;5.882;2023-10-08T08:27:32;13.23;;;8.13;;
68614;SDS011;55593;51.994;5.882;2023-10-08T08:30:05;10.80;;;8.07;;
68614;SDS011;55593;51.994;5.882;2023-10-08T08:32:42;11.82;;;9.48;;
68614;SDS011;55593;51.994;5.882;2023-10-08T08:35:13;12.52;;;8.77;;
68614;SDS011;55593;51.994;5.882;2023-10-08T08:37:45;9.75;;;7.53;;
68614;SDS011;55593;51.994;5.882;2023-10-08T08:40:17;9.45;;;7.53;;
68614;SDS011;55593;51.994;5.882;2023-10-08T08:42:48;12.07;;;7.82;;
68614;SDS011;55593;51.994;5.882;2023-10-08T08:45:19;14.25;;;8.52;;
68614;SDS011;55593;51.994;5.882;2023-10-08T08:47:50;12.35;;;8.48;;
68614;SDS011;55593;51.994;5.882;2023-10-08T08:50:20;10.68;;;7.47;;
68614;SDS011;55593;51.994;5.882;2023-10-08T08:52:52;10.80;;;7.10;;
68614;SDS011;55593;51.994;5.882;2023-10-08T08:55:21;13.38;;;7.93;;
68614;SDS011;55593;51.994;5.882;2023-10-08T08:57:51;11.40;;;7.45;;
68614;SDS011;55593;51.994;5.882;2023-10-08T09:00:21;10.00;;;7.38;;
68614;SDS011;55593;51.994;5.882;2023-10-08T09:02:54;9.63;;;7.22;;
68614;SDS011;55593;51.994;5.882;2023-10-08T09:05:23;12.13;;;7.00;;
68614;SDS011;55593;51.994;5.882;2023-10-08T09:07:59;11.25;;;6.60;;
68614;SDS011;55593;51.994;5.882;2023-10-08T09:10:31;11.23;;;5.47;;
68614;SDS011;55593;51.994;5.882;2023-10-08T09:13:03;11.05;;;5.47;;
68614;SDS011;55593;51.994;5.882;2023-10-08T09:15:34;10.30;;;5.13;;
68614;SDS011;55593;51.994;5.882;2023-10-08T09:18:03;11.13;;;4.47;;
68614;SDS011;55593;51.994;5.882;2023-10-08T09:20:36;8.10;;;3.60;;
68614;SDS011;55593;51.994;5.882;2023-10-08T09:23:11;7.88;;;4.03;;
68614;SDS011;55593;51.994;5.882;2023-10-08T09:25:46;7.30;;;3.40;;
68614;SDS011;55593;51.994;5.882;2023-10-08T09:28:16;7.43;;;3.35;;
68614;SDS011;55593;51.994;5.882;2023-10-08T09:30:47;8.35;;;2.75;;
68614;SDS011;55593;51.994;5.882;2023-10-08T09:33:18;6.90;;;3.00;;
68614;SDS011;55593;51.994;5.882;2023-10-08T09:35:47;7.95;;;3.30;;
68614;SDS011;55593;51.994;5.882;2023-10-08T09:38:20;7.35;;;3.22;;
68614;SDS011;55593;51.994;5.882;2023-10-08T09:40:49;4.88;;;2.55;;
68614;SDS011;55593;51.994;5.882;2023-10-08T09:43:21;7.03;;;2.80;;
68614;SDS011;55593;51.994;5.882;2023-10-08T09:45:52;6.07;;;2.70;;
68614;SDS011;55593;51.994;5.882;2023-10-08T09:48:25;7.88;;;3.05;;
68614;SDS011;55593;51.994;5.882;2023-10-08T09:50:56;5.78;;;2.75;;
68614;SDS011;55593;51.994;5.882;2023-10-08T09:53:31;9.15;;;3.33;;
68614;SDS011;55593;51.994;5.882;2023-10-08T09:56:07;6.72;;;2.80;;
68614;SDS011;55593;51.994;5.882;2023-10-08T09:58:43;5.88;;;2.67;;
68614;SDS011;55593;51.994;5.882;2023-10-08T10:01:14;7.68;;;2.72;;
68614;SDS011;55593;51.994;5.882;2023-10-08T10:03:45;7.28;;;2.97;;
68614;SDS011;55593;51.994;5.882;2023-10-08T10:06:15;8.90;;;2.90;;
68614;SDS011;55593;51.994;5.882;2023-10-08T10:08:48;7.25;;;2.70;;
68614;SDS011;55593;51.994;5.882;2023-10-08T10:11:18;8.25;;;3.30;;
68614;SDS011;55593;51.994;5.882;2023-10-08T10:13:50;9.30;;;3.00;;
68614;SDS011;55593;51.994;5.882;2023-10-08T10:16:21;4.75;;;2.75;;
68614;SDS011;55593;51.994;5.882;2023-10-08T10:18:50;8.10;;;2.60;;
68614;SDS011;55593;51.994;5.882;2023-10-08T10:21:27;6.60;;;2.10;;
68614;SDS011;55593;51.994;5.882;2023-10-08T10:24:01;7.50;;;2.50;;
68614;SDS011;55593;51.994;5.882;2023-10-08T10:26:32;7.00;;;2.53;;
68614;SDS011;55593;51.994;5.882;2023-10-08T10:29:18;9.68;;;2.47;;
68614;SDS011;55593;51.994;5.882;2023-10-08T10:31:49;7.57;;;2.63;;
68614;SDS011;55593;51.994;5.882;2023-10-08T10:34:19;6.53;;;2.20;;
68614;SDS011;55593;51.994;5.882;2023-10-08T10:36:50;5.15;;;2.50;;
68614;SDS011;55593;51.994;5.882;2023-10-08T10:39:27;6.38;;;2.50;;
68614;SDS011;55593;51.994;5.882;2023-10-08T10:41:59;6.15;;;2.35;;
68614;SDS011;55593;51.994;5.882;2023-10-08T10:44:32;7.63;;;2.65;;
68614;SDS011;55593;51.994;5.882;2023-10-08T10:47:02;5.35;;;2.58;;
68614;SDS011;55593;51.994;5.882;2023-10-08T10:49:45;4.55;;;2.10;;
68614;SDS011;55593;51.994;5.882;2023-10-08T10:52:36;5.43;;;2.13;;
68614;SDS011;55593;51.994;5.882;2023-10-08T10:55:13;8.80;;;2.55;;
68614;SDS011;55593;51.994;5.882;2023-10-08T10:57:57;5.13;;;2.10;;
68614;SDS011;55593;51.994;5.882;2023-10-08T11:00:30;7.03;;;1.92;;
68614;SDS011;55593;51.994;5.882;2023-10-08T11:03:12;5.63;;;2.15;;
68614;SDS011;55593;51.994;5.882;2023-10-08T11:05:52;7.22;;;2.20;;
68614;SDS011;55593;51.994;5.882;2023-10-08T11:08:25;11.27;;;2.40;;
68614;SDS011;55593;51.994;5.882;2023-10-08T11:11:03;5.28;;;2.00;;
68614;SDS011;55593;51.994;5.882;2023-10-08T11:13:35;11.45;;;2.55;;
68614;SDS011;55593;51.994;5.882;2023-10-08T11:16:08;8.02;;;2.05;;
68614;SDS011;55593;51.994;5.882;2023-10-08T11:18:43;5.50;;;2.05;;
68614;SDS011;55593;51.994;5.882;2023-10-08T11:21:15;8.25;;;1.88;;
68614;SDS011;55593;51.994;5.882;2023-10-08T11:23:50;5.38;;;1.90;;
68614;SDS011;55593;51.994;5.882;2023-10-08T11:26:28;4.23;;;1.80;;
68614;SDS011;55593;51.994;5.882;2023-10-08T11:29:05;4.85;;;1.85;;
68614;SDS011;55593;51.994;5.882;2023-10-08T11:31:40;6.22;;;1.95;;
68614;SDS011;55593;51.994;5.882;2023-10-08T11:34:10;5.53;;;1.90;;
68614;SDS011;55593;51.994;5.882;2023-10-08T11:36:40;5.00;;;1.80;;
68614;SDS011;55593;51.994;5.882;2023-10-08T11:39:19;5.35;;;1.80;;
68614;SDS011;55593;51.994;5.882;2023-10-08T11:41:59;5.03;;;1.90;;
68614;SDS011;55593;51.994;5.882;2023-10-08T11:44:42;4.13;;;1.80;;
68614;SDS011;55593;51.994;5.882;2023-10-08T11:47:12;7.03;;;2.47;;
68614;SDS011;55593;51.994;5.882;2023-10-08T11:49:47;7.10;;;2.25;;
68614;SDS011;55593;51.994;5.882;2023-10-08T11:52:23;9.38;;;2.75;;
68614;SDS011;55593;51.994;5.882;2023-10-08T11:54:53;11.95;;;3.15;;
68614;SDS011;55593;51.994;5.882;2023-10-08T11:57:26;6.68;;;1.98;;
68614;SDS011;55593;51.994;5.882;2023-10-08T11:59:56;9.30;;;2.67;;
68614;SDS011;55593;51.994;5.882;2023-10-08T12:02:26;8.93;;;2.63;;
68614;SDS011;55593;51.994;5.882;2023-10-08T12:04:55;7.53;;;2.30;;
68614;SDS011;55593;51.994;5.882;2023-10-08T12:07:24;6.80;;;2.40;;
68614;SDS011;55593;51.994;5.882;2023-10-08T12:09:53;8.23;;;3.28;;
68614;SDS011;55593;51.994;5.882;2023-10-08T12:12:22;8.25;;;2.80;;
68614;SDS011;55593;51.994;5.882;2023-10-08T12:14:56;5.78;;;2.70;;
68614;SDS011;55593;51.994;5.882;2023-10-08T12:17:29;6.55;;;2.47;;
68614;SDS011;55593;51.994;5.882;2023-10-08T12:20:05;7.05;;;2.58;;
68614;SDS011;55593;51.994;5.882;2023-10-08T12:22:48;5.35;;;2.92;;
68614;SDS011;55593;51.994;5.882;2023-10-08T12:25:18;8.45;;;3.20;;
68614;SDS011;55593;51.994;5.882;2023-10-08T12:27:48;5.85;;;2.65;;
68614;SDS011;55593;51.994;5.882;2023-10-08T12:30:20;5.13;;;3.70;;
68614;SDS011;55593;51.994;5.882;2023-10-08T12:32:56;10.13;;;3.95;;
68614;SDS011;55593;51.994;5.882;2023-10-08T12:35:25;6.05;;;3.50;;
68614;SDS011;55593;51.994;5.882;2023-10-08T12:37:55;6.68;;;3.58;;
68614;SDS011;55593;51.994;5.882;2023-10-08T12:40:24;6.72;;;4.15;;
68614;SDS011;55593;51.994;5.882;2023-10-08T12:43:08;10.85;;;3.28;;
68614;SDS011;55593;51.994;5.882;2023-10-08T12:45:40;6.30;;;3.78;;
68614;SDS011;55593;51.994;5.882;2023-10-08T12:48:11;10.35;;;3.72;;
68614;SDS011;55593;51.994;5.882;2023-10-08T12:50:40;7.80;;;3.40;;
68614;SDS011;55593;51.994;5.882;2023-10-08T12:53:19;4.88;;;3.15;;
68614;SDS011;55593;51.994;5.882;2023-10-08T12:55:53;7.00;;;3.08;;
68614;SDS011;55593;51.994;5.882;2023-10-08T12:58:24;7.55;;;3.30;;
68614;SDS011;55593;51.994;5.882;2023-10-08T13:00:58;5.32;;;2.75;;
68614;SDS011;55593;51.994;5.882;2023-10-08T13:03:29;7.28;;;3.40;;
68614;SDS011;55593;51.994;5.882;2023-10-08T13:05:59;5.75;;;2.85;;
68614;SDS011;55593;51.994;5.882;2023-10-08T13:08:32;6.72;;;3.40;;
68614;SDS011;55593;51.994;5.882;2023-10-08T13:11:01;5.40;;;2.72;;
68614;SDS011;55593;51.994;5.882;2023-10-08T13:13:31;6.85;;;2.83;;
68614;SDS011;55593;51.994;5.882;2023-10-08T13:16:05;6.43;;;2.65;;
68614;SDS011;55593;51.994;5.882;2023-10-08T13:18:35;4.97;;;2.90;;
68614;SDS011;55593;51.994;5.882;2023-10-08T13:21:09;7.10;;;3.22;;
68614;SDS011;55593;51.994;5.882;2023-10-08T13:23:38;5.13;;;2.80;;
68614;SDS011;55593;51.994;5.882;2023-10-08T13:26:08;7.10;;;2.78;;
68614;SDS011;55593;51.994;5.882;2023-10-08T13:28:43;7.18;;;3.40;;
68614;SDS011;55593;51.994;5.882;2023-10-08T13:31:15;11.90;;;3.88;;
68614;SDS011;55593;51.994;5.882;2023-10-08T13:33:45;5.05;;;2.85;;
68614;SDS011;55593;51.994;5.882;2023-10-08T13:36:18;5.63;;;3.60;;
68614;SDS011;55593;51.994;5.882;2023-10-08T13:38:47;4.53;;;2.50;;
68614;SDS011;55593;51.994;5.882;2023-10-08T13:41:17;7.03;;;2.72;;
68614;SDS011;55593;51.994;5.882;2023-10-08T13:43:47;5.68;;;2.22;;
68614;SDS011;55593;51.994;5.882;2023-10-08T13:46:20;7.55;;;2.80;;
68614;SDS011;55593;51.994;5.882;2023-10-08T13:48:51;5.35;;;2.63;;
68614;SDS011;55593;51.994;5.882;2023-10-08T13:51:20;5.50;;;2.58;;
68614;SDS011;55593;51.994;5.882;2023-10-08T13:53:51;9.20;;;3.00;;
68614;SDS011;55593;51.994;5.882;2023-10-08T13:56:25;6.82;;;3.60;;
68614;SDS011;55593;51.994;5.882;2023-10-08T13:58:56;5.63;;;3.30;;
68614;SDS011;55593;51.994;5.882;2023-10-08T14:01:32;5.50;;;3.30;;
68614;SDS011;55593;51.994;5.882;2023-10-08T14:04:04;6.80;;;3.15;;
68614;SDS011;55593;51.994;5.882;2023-10-08T14:06:35;8.43;;;3.33;;
68614;SDS011;55593;51.994;5.882;2023-10-08T14:09:08;8.45;;;3.40;;
68614;SDS011;55593;51.994;5.882;2023-10-08T14:11:38;5.80;;;3.35;;
68614;SDS011;55593;51.994;5.882;2023-10-08T14:14:07;7.35;;;3.17;;
68614;SDS011;55593;51.994;5.882;2023-10-08T14:16:41;6.88;;;3.33;;
68614;SDS011;55593;51.994;5.882;2023-10-08T14:19:13;7.68;;;3.78;;
68614;SDS011;55593;51.994;5.882;2023-10-08T14:21:42;6.22;;;3.55;;
68614;SDS011;55593;51.994;5.882;2023-10-08T14:24:20;7.18;;;3.50;;
68614;SDS011;55593;51.994;5.882;2023-10-08T14:26:52;4.82;;;2.60;;
68614;SDS011;55593;51.994;5.882;2023-10-08T14:29:25;9.13;;;3.50;;
68614;SDS011;55593;51.994;5.882;2023-10-08T14:31:56;8.07;;;3.63;;
68614;SDS011;55593;51.994;5.882;2023-10-08T14:34:25;8.88;;;2.50;;
68614;SDS011;55593;51.994;5.882;2023-10-08T14:37:18;9.30;;;3.40;;
68614;SDS011;55593;51.994;5.882;2023-10-08T14:39:59;6.07;;;3.40;;
68614;SDS011;55593;51.994;5.882;2023-10-08T14:42:56;5.80;;;3.03;;
68614;SDS011;55593;51.994;5.882;2023-10-08T14:45:29;7.55;;;4.47;;
68614;SDS011;55593;51.994;5.882;2023-10-08T14:48:03;4.50;;;3.40;;
68614;SDS011;55593;51.994;5.882;2023-10-08T14:50:37;7.90;;;5.28;;
68614;SDS011;55593;51.994;5.882;2023-10-08T14:53:07;8.20;;;5.35;;
68614;SDS011;55593;51.994;5.882;2023-10-08T14:55:37;7.65;;;5.25;;
68614;SDS011;55593;51.994;5.882;2023-10-08T14:58:07;7.75;;;4.45;;
68614;SDS011;55593;51.994;5.882;2023-10-08T15:00:37;8.15;;;4.65;;
68614;SDS011;55593;51.994;5.882;2023-10-08T15:03:10;8.63;;;5.05;;
68614;SDS011;55593;51.994;5.882;2023-10-08T15:05:40;6.82;;;4.78;;
68614;SDS011;55593;51.994;5.882;2023-10-08T15:08:09;9.77;;;5.57;;
68614;SDS011;55593;51.994;5.882;2023-10-08T15:10:40;25.20;;;12.05;;
68614;SDS011;55593;51.994;5.882;2023-10-08T15:13:11;9.82;;;5.18;;
68614;SDS011;55593;51.994;5.882;2023-10-08T15:15:41;12.02;;;6.28;;
68614;SDS011;55593;51.994;5.882;2023-10-08T15:18:14;11.60;;;7.72;;
68614;SDS011;55593;51.994;5.882;2023-10-08T15:20:44;9.00;;;4.95;;
68614;SDS011;55593;51.994;5.882;2023-10-08T15:23:13;9.13;;;5.45;;